sensor_id;sensor_type;location;lat;lon;timestamp;P1;durP1;ratioP1;P2;durP2;ratioP2
66327;SDS011;53133;52.862;6.602;2023-02-18T00:01:57;11.75;;;2.90;;
66327;SDS011;53133;52.862;6.602;2023-02-18T00:04:23;18.80;;;3.75;;
66327;SDS011;53133;52.862;6.602;2023-02-18T00:06:48;13.75;;;4.15;;
66327;SDS011;53133;52.862;6.602;2023-02-18T00:09:14;18.55;;;4.60;;
66327;SDS011;53133;52.862;6.602;2023-02-18T00:11:40;11.65;;;4.43;;
66327;SDS011;53133;52.862;6.602;2023-02-18T00:14:11;12.57;;;3.50;;
66327;SDS011;53133;52.862;6.602;2023-02-18T00:16:38;13.88;;;3.17;;
66327;SDS011;53133;52.862;6.602;2023-02-18T00:19:06;15.75;;;4.07;;
66327;SDS011;53133;52.862;6.602;2023-02-18T00:21:35;17.70;;;4.18;;
66327;SDS011;53133;52.862;6.602;2023-02-18T00:24:00;13.57;;;4.10;;
66327;SDS011;53133;52.862;6.602;2023-02-18T00:26:26;15.30;;;4.68;;
66327;SDS011;53133;52.862;6.602;2023-02-18T00:28:52;17.02;;;4.38;;
66327;SDS011;53133;52.862;6.602;2023-02-18T00:31:23;17.55;;;4.15;;
66327;SDS011;53133;52.862;6.602;2023-02-18T00:33:53;15.65;;;3.80;;
66327;SDS011;53133;52.862;6.602;2023-02-18T00:36:20;13.98;;;3.30;;
66327;SDS011;53133;52.862;6.602;2023-02-18T00:38:47;15.73;;;3.90;;
66327;SDS011;53133;52.862;6.602;2023-02-18T00:41:14;14.35;;;3.60;;
66327;SDS011;53133;52.862;6.602;2023-02-18T00:43:40;22.33;;;4.18;;
66327;SDS011;53133;52.862;6.602;2023-02-18T00:46:06;15.45;;;4.10;;
66327;SDS011;53133;52.862;6.602;2023-02-18T00:48:32;11.52;;;3.22;;
66327;SDS011;53133;52.862;6.602;2023-02-18T00:50:59;15.63;;;3.72;;
66327;SDS011;53133;52.862;6.602;2023-02-18T00:53:26;17.23;;;4.20;;
66327;SDS011;53133;52.862;6.602;2023-02-18T00:55:53;17.20;;;3.83;;
66327;SDS011;53133;52.862;6.602;2023-02-18T00:58:18;20.05;;;3.45;;
66327;SDS011;53133;52.862;6.602;2023-02-18T01:00:44;11.77;;;3.80;;
66327;SDS011;53133;52.862;6.602;2023-02-18T01:03:10;13.13;;;3.85;;
66327;SDS011;53133;52.862;6.602;2023-02-18T01:05:36;17.17;;;4.22;;
66327;SDS011;53133;52.862;6.602;2023-02-18T01:08:03;16.60;;;4.07;;
66327;SDS011;53133;52.862;6.602;2023-02-18T01:10:29;17.58;;;5.03;;
66327;SDS011;53133;52.862;6.602;2023-02-18T01:12:55;18.50;;;5.28;;
66327;SDS011;53133;52.862;6.602;2023-02-18T01:15:21;15.45;;;4.68;;
66327;SDS011;53133;52.862;6.602;2023-02-18T01:17:46;17.50;;;5.10;;
66327;SDS011;53133;52.862;6.602;2023-02-18T01:20:13;20.27;;;5.25;;
66327;SDS011;53133;52.862;6.602;2023-02-18T01:22:40;21.65;;;5.70;;
66327;SDS011;53133;52.862;6.602;2023-02-18T01:25:06;20.27;;;6.15;;
66327;SDS011;53133;52.862;6.602;2023-02-18T01:27:32;26.30;;;6.80;;
66327;SDS011;53133;52.862;6.602;2023-02-18T01:29:58;22.55;;;6.78;;
66327;SDS011;53133;52.862;6.602;2023-02-18T01:32:23;18.70;;;6.78;;
66327;SDS011;53133;52.862;6.602;2023-02-18T01:34:49;32.38;;;8.75;;
66327;SDS011;53133;52.862;6.602;2023-02-18T01:37:15;19.83;;;7.80;;
66327;SDS011;53133;52.862;6.602;2023-02-18T01:39:40;21.88;;;8.13;;
66327;SDS011;53133;52.862;6.602;2023-02-18T01:42:06;26.52;;;8.30;;
66327;SDS011;53133;52.862;6.602;2023-02-18T01:44:45;21.85;;;7.40;;
66327;SDS011;53133;52.862;6.602;2023-02-18T01:47:12;19.90;;;7.53;;
66327;SDS011;53133;52.862;6.602;2023-02-18T01:49:38;20.35;;;8.45;;
66327;SDS011;53133;52.862;6.602;2023-02-18T01:52:09;22.55;;;8.60;;
66327;SDS011;53133;52.862;6.602;2023-02-18T01:54:40;27.40;;;8.88;;
66327;SDS011;53133;52.862;6.602;2023-02-18T01:57:09;27.35;;;8.15;;
66327;SDS011;53133;52.862;6.602;2023-02-18T01:59:40;22.15;;;7.85;;
66327;SDS011;53133;52.862;6.602;2023-02-18T02:02:11;26.50;;;8.25;;
66327;SDS011;53133;52.862;6.602;2023-02-18T02:04:39;22.90;;;7.50;;
66327;SDS011;53133;52.862;6.602;2023-02-18T02:07:05;22.50;;;7.85;;
66327;SDS011;53133;52.862;6.602;2023-02-18T02:09:31;24.25;;;7.80;;
66327;SDS011;53133;52.862;6.602;2023-02-18T02:29:12;20.08;;;7.25;;
66327;SDS011;53133;52.862;6.602;2023-02-18T02:45:28;20.42;;;6.85;;
66327;SDS011;53133;52.862;6.602;2023-02-18T02:48:34;18.83;;;6.20;;
66327;SDS011;53133;52.862;6.602;2023-02-18T02:53:41;22.33;;;7.00;;
66327;SDS011;53133;52.862;6.602;2023-02-18T02:56:15;16.52;;;6.50;;
66327;SDS011;53133;52.862;6.602;2023-02-18T02:58:43;17.17;;;5.82;;
66327;SDS011;53133;52.862;6.602;2023-02-18T03:02:17;15.65;;;6.53;;
66327;SDS011;53133;52.862;6.602;2023-02-18T03:15:18;22.35;;;7.15;;
66327;SDS011;53133;52.862;6.602;2023-02-18T03:17:57;23.60;;;8.40;;
66327;SDS011;53133;52.862;6.602;2023-02-18T03:20:28;25.52;;;8.95;;
66327;SDS011;53133;52.862;6.602;2023-02-18T03:22:59;36.10;;;11.52;;
66327;SDS011;53133;52.862;6.602;2023-02-18T03:25:30;25.83;;;10.50;;
66327;SDS011;53133;52.862;6.602;2023-02-18T03:28:02;26.05;;;12.02;;
66327;SDS011;53133;52.862;6.602;2023-02-18T03:30:34;21.77;;;11.88;;
66327;SDS011;53133;52.862;6.602;2023-02-18T03:33:04;30.92;;;13.18;;
66327;SDS011;53133;52.862;6.602;2023-02-18T03:35:32;34.70;;;16.05;;
66327;SDS011;53133;52.862;6.602;2023-02-18T03:40:55;42.47;;;17.27;;
66327;SDS011;53133;52.862;6.602;2023-02-18T03:43:22;39.30;;;17.17;;
66327;SDS011;53133;52.862;6.602;2023-02-18T03:45:47;39.53;;;18.45;;
66327;SDS011;53133;52.862;6.602;2023-02-18T03:48:13;41.53;;;18.90;;
66327;SDS011;53133;52.862;6.602;2023-02-18T03:50:39;42.22;;;20.25;;
66327;SDS011;53133;52.862;6.602;2023-02-18T03:53:04;44.13;;;20.40;;
66327;SDS011;53133;52.862;6.602;2023-02-18T03:55:30;48.05;;;21.70;;
66327;SDS011;53133;52.862;6.602;2023-02-18T03:57:55;48.65;;;21.60;;
66327;SDS011;53133;52.862;6.602;2023-02-18T04:00:21;47.67;;;22.60;;
66327;SDS011;53133;52.862;6.602;2023-02-18T04:02:47;56.30;;;22.92;;
66327;SDS011;53133;52.862;6.602;2023-02-18T04:05:12;51.75;;;23.83;;
66327;SDS011;53133;52.862;6.602;2023-02-18T04:07:38;51.90;;;23.00;;
66327;SDS011;53133;52.862;6.602;2023-02-18T04:10:04;48.03;;;22.02;;
66327;SDS011;53133;52.862;6.602;2023-02-18T04:12:30;48.58;;;21.60;;
66327;SDS011;53133;52.862;6.602;2023-02-18T04:14:56;50.45;;;22.40;;
66327;SDS011;53133;52.862;6.602;2023-02-18T04:17:22;48.30;;;23.00;;
66327;SDS011;53133;52.862;6.602;2023-02-18T04:19:47;51.60;;;23.10;;
66327;SDS011;53133;52.862;6.602;2023-02-18T04:22:13;51.78;;;23.33;;
66327;SDS011;53133;52.862;6.602;2023-02-18T04:24:38;49.55;;;22.98;;
66327;SDS011;53133;52.862;6.602;2023-02-18T04:27:04;54.30;;;23.50;;
66327;SDS011;53133;52.862;6.602;2023-02-18T04:29:29;58.83;;;24.17;;
66327;SDS011;53133;52.862;6.602;2023-02-18T04:31:55;63.33;;;26.15;;
66327;SDS011;53133;52.862;6.602;2023-02-18T04:34:20;51.88;;;24.63;;
66327;SDS011;53133;52.862;6.602;2023-02-18T04:36:46;62.17;;;25.23;;
66327;SDS011;53133;52.862;6.602;2023-02-18T04:39:12;59.85;;;24.70;;
66327;SDS011;53133;52.862;6.602;2023-02-18T04:41:37;58.60;;;24.85;;
66327;SDS011;53133;52.862;6.602;2023-02-18T04:44:03;58.40;;;25.67;;
66327;SDS011;53133;52.862;6.602;2023-02-18T04:46:29;56.35;;;25.27;;
66327;SDS011;53133;52.862;6.602;2023-02-18T04:48:56;61.35;;;25.85;;
66327;SDS011;53133;52.862;6.602;2023-02-18T04:51:21;59.60;;;26.70;;
66327;SDS011;53133;52.862;6.602;2023-02-18T04:53:47;60.10;;;25.48;;
66327;SDS011;53133;52.862;6.602;2023-02-18T04:56:13;60.13;;;26.13;;
66327;SDS011;53133;52.862;6.602;2023-02-18T04:58:39;65.20;;;25.73;;
66327;SDS011;53133;52.862;6.602;2023-02-18T05:01:04;57.28;;;26.23;;
66327;SDS011;53133;52.862;6.602;2023-02-18T05:03:30;57.17;;;23.65;;
66327;SDS011;53133;52.862;6.602;2023-02-18T05:05:56;59.78;;;27.00;;
66327;SDS011;53133;52.862;6.602;2023-02-18T05:08:22;60.35;;;24.90;;
66327;SDS011;53133;52.862;6.602;2023-02-18T05:10:47;60.10;;;24.55;;
66327;SDS011;53133;52.862;6.602;2023-02-18T05:13:13;62.08;;;25.00;;
66327;SDS011;53133;52.862;6.602;2023-02-18T05:15:39;68.13;;;25.88;;
66327;SDS011;53133;52.862;6.602;2023-02-18T05:18:05;63.05;;;25.35;;
66327;SDS011;53133;52.862;6.602;2023-02-18T05:20:31;62.75;;;26.88;;
66327;SDS011;53133;52.862;6.602;2023-02-18T05:22:57;69.18;;;27.30;;
66327;SDS011;53133;52.862;6.602;2023-02-18T05:25:23;69.53;;;26.92;;
66327;SDS011;53133;52.862;6.602;2023-02-18T05:27:48;74.70;;;28.77;;
66327;SDS011;53133;52.862;6.602;2023-02-18T05:30:14;75.38;;;26.90;;
66327;SDS011;53133;52.862;6.602;2023-02-18T05:32:39;68.93;;;27.10;;
66327;SDS011;53133;52.862;6.602;2023-02-18T05:35:05;72.53;;;26.02;;
66327;SDS011;53133;52.862;6.602;2023-02-18T05:37:31;57.60;;;22.90;;
66327;SDS011;53133;52.862;6.602;2023-02-18T05:39:57;61.42;;;24.50;;
66327;SDS011;53133;52.862;6.602;2023-02-18T05:42:22;56.58;;;20.10;;
66327;SDS011;53133;52.862;6.602;2023-02-18T05:44:48;52.53;;;20.63;;
66327;SDS011;53133;52.862;6.602;2023-02-18T05:47:14;50.47;;;18.50;;
66327;SDS011;53133;52.862;6.602;2023-02-18T05:49:40;46.63;;;17.65;;
66327;SDS011;53133;52.862;6.602;2023-02-18T05:52:06;45.30;;;17.08;;
66327;SDS011;53133;52.862;6.602;2023-02-18T05:54:34;40.78;;;15.65;;
66327;SDS011;53133;52.862;6.602;2023-02-18T05:57:00;37.67;;;14.35;;
66327;SDS011;53133;52.862;6.602;2023-02-18T05:59:26;39.13;;;15.15;;
66327;SDS011;53133;52.862;6.602;2023-02-18T06:01:52;34.30;;;12.98;;
66327;SDS011;53133;52.862;6.602;2023-02-18T06:04:18;37.95;;;13.48;;
66327;SDS011;53133;52.862;6.602;2023-02-18T06:06:43;26.25;;;11.38;;
66327;SDS011;53133;52.862;6.602;2023-02-18T06:09:09;37.33;;;11.85;;
66327;SDS011;53133;52.862;6.602;2023-02-18T06:11:35;27.90;;;10.98;;
66327;SDS011;53133;52.862;6.602;2023-02-18T06:14:01;28.27;;;10.02;;
66327;SDS011;53133;52.862;6.602;2023-02-18T06:16:26;27.15;;;9.70;;
66327;SDS011;53133;52.862;6.602;2023-02-18T06:18:52;24.05;;;9.75;;
66327;SDS011;53133;52.862;6.602;2023-02-18T06:21:18;24.50;;;9.20;;
66327;SDS011;53133;52.862;6.602;2023-02-18T06:23:44;25.00;;;8.77;;
66327;SDS011;53133;52.862;6.602;2023-02-18T06:26:09;19.40;;;8.05;;
66327;SDS011;53133;52.862;6.602;2023-02-18T06:28:35;17.33;;;6.72;;
66327;SDS011;53133;52.862;6.602;2023-02-18T06:31:00;15.55;;;7.10;;
66327;SDS011;53133;52.862;6.602;2023-02-18T06:33:26;19.15;;;7.50;;
66327;SDS011;53133;52.862;6.602;2023-02-18T06:35:56;16.70;;;6.43;;
66327;SDS011;53133;52.862;6.602;2023-02-18T06:38:24;18.33;;;7.00;;
66327;SDS011;53133;52.862;6.602;2023-02-18T06:40:50;18.15;;;6.68;;
66327;SDS011;53133;52.862;6.602;2023-02-18T06:43:15;17.90;;;6.72;;
66327;SDS011;53133;52.862;6.602;2023-02-18T06:45:41;13.90;;;6.03;;
66327;SDS011;53133;52.862;6.602;2023-02-18T06:48:07;17.85;;;6.72;;
66327;SDS011;53133;52.862;6.602;2023-02-18T06:50:32;12.95;;;6.63;;
66327;SDS011;53133;52.862;6.602;2023-02-18T06:52:58;16.15;;;7.15;;
66327;SDS011;53133;52.862;6.602;2023-02-18T06:55:24;16.02;;;7.50;;
66327;SDS011;53133;52.862;6.602;2023-02-18T06:57:49;16.63;;;7.85;;
66327;SDS011;53133;52.862;6.602;2023-02-18T07:00:15;17.73;;;9.32;;
66327;SDS011;53133;52.862;6.602;2023-02-18T07:02:41;19.67;;;9.23;;
66327;SDS011;53133;52.862;6.602;2023-02-18T07:05:07;19.33;;;10.77;;
66327;SDS011;53133;52.862;6.602;2023-02-18T07:07:32;23.45;;;11.48;;
66327;SDS011;53133;52.862;6.602;2023-02-18T07:09:58;23.00;;;11.35;;
66327;SDS011;53133;52.862;6.602;2023-02-18T07:12:24;25.98;;;11.82;;
66327;SDS011;53133;52.862;6.602;2023-02-18T07:14:50;26.10;;;13.13;;
66327;SDS011;53133;52.862;6.602;2023-02-18T07:17:15;27.20;;;14.13;;
66327;SDS011;53133;52.862;6.602;2023-02-18T07:19:41;29.60;;;13.98;;
66327;SDS011;53133;52.862;6.602;2023-02-18T07:22:06;32.10;;;16.52;;
66327;SDS011;53133;52.862;6.602;2023-02-18T07:24:32;34.80;;;16.40;;
66327;SDS011;53133;52.862;6.602;2023-02-18T07:26:58;39.00;;;17.27;;
66327;SDS011;53133;52.862;6.602;2023-02-18T07:29:23;32.70;;;17.42;;
66327;SDS011;53133;52.862;6.602;2023-02-18T07:31:49;37.42;;;17.88;;
66327;SDS011;53133;52.862;6.602;2023-02-18T07:34:14;33.70;;;18.08;;
66327;SDS011;53133;52.862;6.602;2023-02-18T07:36:40;32.30;;;18.30;;
66327;SDS011;53133;52.862;6.602;2023-02-18T07:39:06;35.08;;;17.90;;
66327;SDS011;53133;52.862;6.602;2023-02-18T07:41:32;33.95;;;18.30;;
66327;SDS011;53133;52.862;6.602;2023-02-18T07:43:57;31.88;;;17.10;;
66327;SDS011;53133;52.862;6.602;2023-02-18T07:46:23;33.28;;;17.77;;
66327;SDS011;53133;52.862;6.602;2023-02-18T07:48:48;33.78;;;17.50;;
66327;SDS011;53133;52.862;6.602;2023-02-18T07:51:14;34.03;;;16.63;;
66327;SDS011;53133;52.862;6.602;2023-02-18T07:53:40;29.05;;;15.27;;
66327;SDS011;53133;52.862;6.602;2023-02-18T07:56:05;29.70;;;17.23;;
66327;SDS011;53133;52.862;6.602;2023-02-18T07:58:33;29.80;;;14.82;;
66327;SDS011;53133;52.862;6.602;2023-02-18T08:01:07;27.63;;;14.57;;
66327;SDS011;53133;52.862;6.602;2023-02-18T08:03:35;28.60;;;13.57;;
66327;SDS011;53133;52.862;6.602;2023-02-18T08:06:01;30.30;;;14.60;;
66327;SDS011;53133;52.862;6.602;2023-02-18T08:08:29;28.77;;;14.40;;
66327;SDS011;53133;52.862;6.602;2023-02-18T08:10:57;27.60;;;13.57;;
66327;SDS011;53133;52.862;6.602;2023-02-18T08:13:26;46.80;;;26.67;;
66327;SDS011;53133;52.862;6.602;2023-02-18T08:15:55;28.67;;;14.52;;
66327;SDS011;53133;52.862;6.602;2023-02-18T08:18:22;44.85;;;26.13;;
66327;SDS011;53133;52.862;6.602;2023-02-18T08:20:49;28.10;;;15.60;;
66327;SDS011;53133;52.862;6.602;2023-02-18T08:23:17;31.80;;;15.93;;
66327;SDS011;53133;52.862;6.602;2023-02-18T08:25:45;25.02;;;11.27;;
66327;SDS011;53133;52.862;6.602;2023-02-18T08:28:12;21.75;;;12.43;;
66327;SDS011;53133;52.862;6.602;2023-02-18T08:30:38;21.40;;;11.02;;
66327;SDS011;53133;52.862;6.602;2023-02-18T08:33:08;27.23;;;11.13;;
66327;SDS011;53133;52.862;6.602;2023-02-18T08:35:33;22.48;;;9.73;;
66327;SDS011;53133;52.862;6.602;2023-02-18T08:37:59;18.00;;;8.55;;
66327;SDS011;53133;52.862;6.602;2023-02-18T08:40:24;22.65;;;10.05;;
66327;SDS011;53133;52.862;6.602;2023-02-18T08:42:50;20.45;;;9.32;;
66327;SDS011;53133;52.862;6.602;2023-02-18T08:45:15;18.00;;;9.32;;
66327;SDS011;53133;52.862;6.602;2023-02-18T08:47:41;21.27;;;8.32;;
66327;SDS011;53133;52.862;6.602;2023-02-18T08:50:07;21.77;;;9.00;;
66327;SDS011;53133;52.862;6.602;2023-02-18T08:52:33;17.88;;;8.82;;
66327;SDS011;53133;52.862;6.602;2023-02-18T08:54:58;22.40;;;8.60;;
66327;SDS011;53133;52.862;6.602;2023-02-18T08:57:24;16.60;;;7.75;;
66327;SDS011;53133;52.862;6.602;2023-02-18T08:59:51;15.55;;;7.55;;
66327;SDS011;53133;52.862;6.602;2023-02-18T09:02:16;17.92;;;7.63;;
66327;SDS011;53133;52.862;6.602;2023-02-18T09:04:42;16.40;;;8.27;;
66327;SDS011;53133;52.862;6.602;2023-02-18T09:07:08;20.65;;;9.02;;
66327;SDS011;53133;52.862;6.602;2023-02-18T09:09:33;24.77;;;14.57;;
66327;SDS011;53133;52.862;6.602;2023-02-18T09:11:59;16.52;;;7.80;;
66327;SDS011;53133;52.862;6.602;2023-02-18T09:14:24;12.07;;;7.07;;
66327;SDS011;53133;52.862;6.602;2023-02-18T09:16:50;14.60;;;7.20;;
66327;SDS011;53133;52.862;6.602;2023-02-18T09:19:16;13.68;;;6.00;;
66327;SDS011;53133;52.862;6.602;2023-02-18T09:21:42;13.68;;;6.13;;
66327;SDS011;53133;52.862;6.602;2023-02-18T09:24:08;9.52;;;5.28;;
66327;SDS011;53133;52.862;6.602;2023-02-18T09:26:34;16.48;;;5.88;;
66327;SDS011;53133;52.862;6.602;2023-02-18T09:29:00;12.60;;;5.68;;
66327;SDS011;53133;52.862;6.602;2023-02-18T09:31:26;13.85;;;6.38;;
66327;SDS011;53133;52.862;6.602;2023-02-18T09:33:56;13.70;;;6.47;;
66327;SDS011;53133;52.862;6.602;2023-02-18T09:36:24;14.05;;;6.00;;
66327;SDS011;53133;52.862;6.602;2023-02-18T09:38:50;16.02;;;6.05;;
66327;SDS011;53133;52.862;6.602;2023-02-18T09:49:40;17.13;;;5.38;;
66327;SDS011;53133;52.862;6.602;2023-02-18T09:54:56;14.63;;;5.82;;
66327;SDS011;53133;52.862;6.602;2023-02-18T09:59:48;14.05;;;5.43;;
66327;SDS011;53133;52.862;6.602;2023-02-18T10:02:20;12.85;;;4.68;;
66327;SDS011;53133;52.862;6.602;2023-02-18T10:04:47;15.13;;;4.90;;
66327;SDS011;53133;52.862;6.602;2023-02-18T10:07:26;18.13;;;5.22;;
66327;SDS011;53133;52.862;6.602;2023-02-18T10:09:55;16.00;;;4.57;;
66327;SDS011;53133;52.862;6.602;2023-02-18T10:12:24;13.32;;;4.30;;
66327;SDS011;53133;52.862;6.602;2023-02-18T10:14:52;15.27;;;4.82;;
66327;SDS011;53133;52.862;6.602;2023-02-18T10:17:20;19.75;;;4.22;;
66327;SDS011;53133;52.862;6.602;2023-02-18T10:19:50;14.85;;;4.60;;
66327;SDS011;53133;52.862;6.602;2023-02-18T10:22:17;18.50;;;5.07;;
66327;SDS011;53133;52.862;6.602;2023-02-18T10:24:57;16.92;;;4.47;;
66327;SDS011;53133;52.862;6.602;2023-02-18T10:27:28;20.67;;;4.35;;
66327;SDS011;53133;52.862;6.602;2023-02-18T10:30:03;25.33;;;6.03;;
66327;SDS011;53133;52.862;6.602;2023-02-18T10:32:53;21.65;;;4.80;;
66327;SDS011;53133;52.862;6.602;2023-02-18T10:43:24;19.83;;;4.53;;
66327;SDS011;53133;52.862;6.602;2023-02-18T10:46:21;19.05;;;4.13;;
66327;SDS011;53133;52.862;6.602;2023-02-18T10:51:50;16.20;;;3.53;;
66327;SDS011;53133;52.862;6.602;2023-02-18T10:54:23;23.67;;;4.20;;
66327;SDS011;53133;52.862;6.602;2023-02-18T10:56:50;17.88;;;3.72;;
66327;SDS011;53133;52.862;6.602;2023-02-18T10:59:23;15.63;;;3.67;;
66327;SDS011;53133;52.862;6.602;2023-02-18T11:01:55;20.27;;;4.00;;
66327;SDS011;53133;52.862;6.602;2023-02-18T11:04:36;19.85;;;4.38;;
66327;SDS011;53133;52.862;6.602;2023-02-18T11:07:05;15.07;;;4.10;;
66327;SDS011;53133;52.862;6.602;2023-02-18T11:09:57;18.10;;;3.55;;
66327;SDS011;53133;52.862;6.602;2023-02-18T11:17:44;16.92;;;4.20;;
66327;SDS011;53133;52.862;6.602;2023-02-18T11:20:20;15.70;;;3.70;;
66327;SDS011;53133;52.862;6.602;2023-02-18T11:22:56;16.08;;;3.50;;
66327;SDS011;53133;52.862;6.602;2023-02-18T11:25:27;13.23;;;3.42;;
66327;SDS011;53133;52.862;6.602;2023-02-18T11:28:01;17.30;;;3.67;;
66327;SDS011;53133;52.862;6.602;2023-02-18T11:30:30;13.75;;;3.70;;
66327;SDS011;53133;52.862;6.602;2023-02-18T11:33:06;12.23;;;3.30;;
66327;SDS011;53133;52.862;6.602;2023-02-18T11:35:51;18.08;;;3.20;;
66327;SDS011;53133;52.862;6.602;2023-02-18T11:40:53;20.85;;;3.67;;
66327;SDS011;53133;52.862;6.602;2023-02-18T11:43:21;17.70;;;3.78;;
66327;SDS011;53133;52.862;6.602;2023-02-18T11:46:06;15.05;;;3.92;;
66327;SDS011;53133;52.862;6.602;2023-02-18T11:48:36;11.68;;;3.05;;
66327;SDS011;53133;52.862;6.602;2023-02-18T11:51:02;13.07;;;3.83;;
66327;SDS011;53133;52.862;6.602;2023-02-18T11:53:35;15.68;;;3.42;;
66327;SDS011;53133;52.862;6.602;2023-02-18T11:56:03;13.68;;;3.85;;
66327;SDS011;53133;52.862;6.602;2023-02-18T11:58:35;12.02;;;3.00;;
66327;SDS011;53133;52.862;6.602;2023-02-18T12:01:05;11.52;;;3.35;;
66327;SDS011;53133;52.862;6.602;2023-02-18T12:09:09;12.93;;;3.15;;
66327;SDS011;53133;52.862;6.602;2023-02-18T12:11:58;15.52;;;3.10;;
66327;SDS011;53133;52.862;6.602;2023-02-18T12:14:27;13.68;;;3.33;;
66327;SDS011;53133;52.862;6.602;2023-02-18T12:26:02;11.18;;;3.20;;
66327;SDS011;53133;52.862;6.602;2023-02-18T12:31:28;11.73;;;3.55;;
66327;SDS011;53133;52.862;6.602;2023-02-18T12:34:11;13.97;;;3.63;;
66327;SDS011;53133;52.862;6.602;2023-02-18T12:44:33;12.20;;;3.13;;
66327;SDS011;53133;52.862;6.602;2023-02-18T13:01:13;7.72;;;2.47;;
66327;SDS011;53133;52.862;6.602;2023-02-18T13:09:50;8.68;;;3.00;;
66327;SDS011;53133;52.862;6.602;2023-02-18T13:14:59;10.80;;;3.10;;
66327;SDS011;53133;52.862;6.602;2023-02-18T13:17:29;10.32;;;2.63;;
66327;SDS011;53133;52.862;6.602;2023-02-18T13:20:00;9.95;;;2.92;;
66327;SDS011;53133;52.862;6.602;2023-02-18T13:22:37;13.25;;;2.83;;
66327;SDS011;53133;52.862;6.602;2023-02-18T13:25:03;11.27;;;2.75;;
66327;SDS011;53133;52.862;6.602;2023-02-18T13:30:22;11.68;;;3.15;;
66327;SDS011;53133;52.862;6.602;2023-02-18T13:41:20;10.25;;;2.72;;
66327;SDS011;53133;52.862;6.602;2023-02-18T13:43:46;8.18;;;2.60;;
66327;SDS011;53133;52.862;6.602;2023-02-18T13:46:13;12.38;;;3.10;;
66327;SDS011;53133;52.862;6.602;2023-02-18T13:51:28;11.25;;;3.08;;
66327;SDS011;53133;52.862;6.602;2023-02-18T13:56:41;12.57;;;3.05;;
66327;SDS011;53133;52.862;6.602;2023-02-18T13:59:33;12.63;;;2.83;;
66327;SDS011;53133;52.862;6.602;2023-02-18T14:10:42;12.75;;;2.75;;
66327;SDS011;53133;52.862;6.602;2023-02-18T14:17:46;9.23;;;3.10;;
66327;SDS011;53133;52.862;6.602;2023-02-18T14:25:53;15.10;;;3.33;;
66327;SDS011;53133;52.862;6.602;2023-02-18T14:36:31;12.13;;;2.75;;
66327;SDS011;53133;52.862;6.602;2023-02-18T14:42:14;16.48;;;3.95;;
66327;SDS011;53133;52.862;6.602;2023-02-18T14:47:37;12.15;;;3.30;;
66327;SDS011;53133;52.862;6.602;2023-02-18T14:50:21;12.27;;;2.47;;
66327;SDS011;53133;52.862;6.602;2023-02-18T14:52:55;11.32;;;2.80;;
66327;SDS011;53133;52.862;6.602;2023-02-18T14:55:27;10.98;;;3.03;;
66327;SDS011;53133;52.862;6.602;2023-02-18T14:58:02;13.85;;;3.30;;
66327;SDS011;53133;52.862;6.602;2023-02-18T15:00:45;10.40;;;2.97;;
66327;SDS011;53133;52.862;6.602;2023-02-18T15:03:12;12.68;;;3.22;;
66327;SDS011;53133;52.862;6.602;2023-02-18T15:05:40;14.77;;;3.50;;
66327;SDS011;53133;52.862;6.602;2023-02-18T15:08:13;12.50;;;2.80;;
66327;SDS011;53133;52.862;6.602;2023-02-18T15:10:45;12.35;;;3.45;;
66327;SDS011;53133;52.862;6.602;2023-02-18T15:13:22;14.32;;;4.43;;
66327;SDS011;53133;52.862;6.602;2023-02-18T15:15:53;13.48;;;3.30;;
66327;SDS011;53133;52.862;6.602;2023-02-18T15:19:04;12.52;;;2.80;;
66327;SDS011;53133;52.862;6.602;2023-02-18T15:21:17;11.90;;;3.17;;
66327;SDS011;53133;52.862;6.602;2023-02-18T15:24:08;12.13;;;2.90;;
66327;SDS011;53133;52.862;6.602;2023-02-18T15:26:41;17.20;;;3.22;;
66327;SDS011;53133;52.862;6.602;2023-02-18T15:29:14;12.15;;;3.13;;
66327;SDS011;53133;52.862;6.602;2023-02-18T15:31:53;11.98;;;3.40;;
66327;SDS011;53133;52.862;6.602;2023-02-18T15:36:54;9.38;;;2.75;;
66327;SDS011;53133;52.862;6.602;2023-02-18T15:39:20;11.98;;;2.92;;
66327;SDS011;53133;52.862;6.602;2023-02-18T15:41:50;14.85;;;3.40;;
66327;SDS011;53133;52.862;6.602;2023-02-18T15:44:21;15.07;;;3.10;;
66327;SDS011;53133;52.862;6.602;2023-02-18T15:46:49;12.88;;;3.25;;
66327;SDS011;53133;52.862;6.602;2023-02-18T15:49:16;16.85;;;3.90;;
66327;SDS011;53133;52.862;6.602;2023-02-18T15:51:44;10.63;;;2.80;;
66327;SDS011;53133;52.862;6.602;2023-02-18T15:54:10;20.85;;;4.18;;
66327;SDS011;53133;52.862;6.602;2023-02-18T15:56:44;16.00;;;3.80;;
66327;SDS011;53133;52.862;6.602;2023-02-18T16:01:41;19.90;;;7.40;;
66327;SDS011;53133;52.862;6.602;2023-02-18T16:04:12;12.15;;;3.03;;
66327;SDS011;53133;52.862;6.602;2023-02-18T16:06:43;12.30;;;3.38;;
66327;SDS011;53133;52.862;6.602;2023-02-18T16:14:22;12.07;;;2.72;;
66327;SDS011;53133;52.862;6.602;2023-02-18T16:17:05;16.05;;;2.97;;
66327;SDS011;53133;52.862;6.602;2023-02-18T16:19:50;19.23;;;3.50;;
66327;SDS011;53133;52.862;6.602;2023-02-18T16:24:47;14.38;;;3.50;;
66327;SDS011;53133;52.862;6.602;2023-02-18T16:27:18;13.13;;;3.20;;
66327;SDS011;53133;52.862;6.602;2023-02-18T16:29:44;14.00;;;3.30;;
66327;SDS011;53133;52.862;6.602;2023-02-18T16:32:09;15.00;;;3.17;;
66327;SDS011;53133;52.862;6.602;2023-02-18T16:34:35;12.57;;;2.92;;
66327;SDS011;53133;52.862;6.602;2023-02-18T16:37:01;12.27;;;3.00;;
66327;SDS011;53133;52.862;6.602;2023-02-18T16:39:59;11.07;;;2.90;;
66327;SDS011;53133;52.862;6.602;2023-02-18T16:42:25;12.50;;;2.88;;
66327;SDS011;53133;52.862;6.602;2023-02-18T16:44:50;15.68;;;2.90;;
66327;SDS011;53133;52.862;6.602;2023-02-18T16:47:16;13.40;;;2.90;;
66327;SDS011;53133;52.862;6.602;2023-02-18T16:49:43;12.55;;;2.80;;
66327;SDS011;53133;52.862;6.602;2023-02-18T16:52:11;13.95;;;2.50;;
66327;SDS011;53133;52.862;6.602;2023-02-18T16:54:40;11.95;;;3.70;;
66327;SDS011;53133;52.862;6.602;2023-02-18T16:57:05;11.57;;;2.33;;
66327;SDS011;53133;52.862;6.602;2023-02-18T16:59:31;13.95;;;3.15;;
66327;SDS011;53133;52.862;6.602;2023-02-18T17:01:56;16.02;;;5.00;;
66327;SDS011;53133;52.862;6.602;2023-02-18T17:04:22;12.98;;;2.92;;
66327;SDS011;53133;52.862;6.602;2023-02-18T17:06:48;12.02;;;3.05;;
66327;SDS011;53133;52.862;6.602;2023-02-18T17:09:14;20.30;;;5.03;;
66327;SDS011;53133;52.862;6.602;2023-02-18T17:11:42;15.73;;;3.20;;
66327;SDS011;53133;52.862;6.602;2023-02-18T17:14:12;16.52;;;3.15;;
66327;SDS011;53133;52.862;6.602;2023-02-18T17:16:42;15.38;;;3.10;;
66327;SDS011;53133;52.862;6.602;2023-02-18T17:19:11;10.88;;;2.33;;
66327;SDS011;53133;52.862;6.602;2023-02-18T17:21:36;12.68;;;2.67;;
66327;SDS011;53133;52.862;6.602;2023-02-18T17:24:02;16.38;;;3.58;;
66327;SDS011;53133;52.862;6.602;2023-02-18T17:26:29;15.35;;;2.92;;
66327;SDS011;53133;52.862;6.602;2023-02-18T17:28:55;16.02;;;3.58;;
66327;SDS011;53133;52.862;6.602;2023-02-18T17:31:23;10.70;;;2.80;;
66327;SDS011;53133;52.862;6.602;2023-02-18T17:33:52;14.35;;;3.22;;
66327;SDS011;53133;52.862;6.602;2023-02-18T17:36:19;15.52;;;3.55;;
66327;SDS011;53133;52.862;6.602;2023-02-18T17:38:45;16.63;;;3.80;;
66327;SDS011;53133;52.862;6.602;2023-02-18T17:41:14;13.57;;;3.67;;
66327;SDS011;53133;52.862;6.602;2023-02-18T17:43:40;18.55;;;3.65;;
66327;SDS011;53133;52.862;6.602;2023-02-18T17:46:13;17.08;;;3.92;;
66327;SDS011;53133;52.862;6.602;2023-02-18T17:48:40;14.68;;;3.53;;
66327;SDS011;53133;52.862;6.602;2023-02-18T17:51:09;13.70;;;3.70;;